sensor_id;sensor_type;location;lat;lon;timestamp;pressure;altitude;pressure_sealevel;temperature;humidity
36828;BME280;22766;48.042;11.192;2023-01-23T00:01:28;95969.91;;;-7.82;100.00
36828;BME280;22766;48.042;11.192;2023-01-23T00:03:56;95967.31;;;-7.73;100.00
36828;BME280;22766;48.042;11.192;2023-01-23T00:06:23;95970.66;;;-7.74;100.00
36828;BME280;22766;48.042;11.192;2023-01-23T00:08:50;95977.34;;;-7.73;100.00
36828;BME280;22766;48.042;11.192;2023-01-23T00:11:19;95978.22;;;-7.79;100.00
36828;BME280;22766;48.042;11.192;2023-01-23T00:13:47;95977.44;;;-7.82;100.00
36828;BME280;22766;48.042;11.192;2023-01-23T00:16:16;95973.41;;;-7.94;100.00
36828;BME280;22766;48.042;11.192;2023-01-23T00:18:44;95974.13;;;-7.84;100.00
36828;BME280;22766;48.042;11.192;2023-01-23T00:21:13;95979.84;;;-7.75;100.00
36828;BME280;22766;48.042;11.192;2023-01-23T00:23:42;95979.84;;;-7.73;100.00
36828;BME280;22766;48.042;11.192;2023-01-23T00:26:15;95984.03;;;-7.77;100.00
36828;BME280;22766;48.042;11.192;2023-01-23T00:28:45;95978.91;;;-7.69;100.00
36828;BME280;22766;48.042;11.192;2023-01-23T00:31:18;95972.22;;;-7.66;100.00
36828;BME280;22766;48.042;11.192;2023-01-23T00:33:47;95981.31;;;-7.62;100.00
36828;BME280;22766;48.042;11.192;2023-01-23T00:36:20;95975.41;;;-7.57;100.00
36828;BME280;22766;48.042;11.192;2023-01-23T00:38:47;95981.13;;;-7.46;100.00
36828;BME280;22766;48.042;11.192;2023-01-23T00:41:13;95977.59;;;-7.33;100.00
36828;BME280;22766;48.042;11.192;2023-01-23T00:43:41;95982.47;;;-7.24;100.00
36828;BME280;22766;48.042;11.192;2023-01-23T00:46:09;95983.88;;;-7.08;100.00
36828;BME280;22766;48.042;11.192;2023-01-23T00:48:35;95988.75;;;-6.99;100.00
36828;BME280;22766;48.042;11.192;2023-01-23T00:51:03;95982.72;;;-6.89;100.00
36828;BME280;22766;48.042;11.192;2023-01-23T00:53:29;95975.91;;;-6.81;100.00
36828;BME280;22766;48.042;11.192;2023-01-23T00:55:56;95975.72;;;-6.71;100.00
36828;BME280;22766;48.042;11.192;2023-01-23T00:58:23;95979.78;;;-6.63;100.00
36828;BME280;22766;48.042;11.192;2023-01-23T01:00:49;95982.09;;;-6.53;100.00
36828;BME280;22766;48.042;11.192;2023-01-23T01:03:16;95986.97;;;-6.44;100.00
36828;BME280;22766;48.042;11.192;2023-01-23T01:05:45;95990.91;;;-6.31;100.00
36828;BME280;22766;48.042;11.192;2023-01-23T01:08:12;95992.31;;;-6.16;100.00
36828;BME280;22766;48.042;11.192;2023-01-23T01:10:40;95996.19;;;-6.02;100.00
36828;BME280;22766;48.042;11.192;2023-01-23T01:13:08;95997.75;;;-5.95;100.00
36828;BME280;22766;48.042;11.192;2023-01-23T01:15:36;95999.25;;;-5.86;100.00
36828;BME280;22766;48.042;11.192;2023-01-23T01:18:03;95999.06;;;-5.79;100.00
36828;BME280;22766;48.042;11.192;2023-01-23T01:20:30;96002.25;;;-5.71;100.00
36828;BME280;22766;48.042;11.192;2023-01-23T01:22:57;96003.84;;;-5.66;100.00
36828;BME280;22766;48.042;11.192;2023-01-23T01:25:24;96002.00;;;-5.58;100.00
36828;BME280;22766;48.042;11.192;2023-01-23T01:27:52;95999.19;;;-5.46;100.00
36828;BME280;22766;48.042;11.192;2023-01-23T01:30:21;95998.19;;;-5.38;100.00
36828;BME280;22766;48.042;11.192;2023-01-23T01:32:48;95999.63;;;-5.28;100.00
36828;BME280;22766;48.042;11.192;2023-01-23T01:35:15;95993.63;;;-5.21;100.00
36828;BME280;22766;48.042;11.192;2023-01-23T01:37:41;95988.41;;;-5.13;100.00
36828;BME280;22766;48.042;11.192;2023-01-23T01:40:13;95992.47;;;-5.08;100.00
36828;BME280;22766;48.042;11.192;2023-01-23T01:42:49;95994.00;;;-5.02;100.00
36828;BME280;22766;48.042;11.192;2023-01-23T01:48:24;95984.69;;;-4.99;100.00
36828;BME280;22766;48.042;11.192;2023-01-23T01:50:52;95984.78;;;-5.03;100.00
36828;BME280;22766;48.042;11.192;2023-01-23T01:53:20;95984.28;;;-5.17;100.00
36828;BME280;22766;48.042;11.192;2023-01-23T01:55:49;95976.97;;;-5.28;100.00
36828;BME280;22766;48.042;11.192;2023-01-23T01:58:16;95973.03;;;-5.39;100.00
36828;BME280;22766;48.042;11.192;2023-01-23T02:00:43;95985.09;;;-5.53;100.00
36828;BME280;22766;48.042;11.192;2023-01-23T02:03:10;95986.22;;;-5.66;100.00
36828;BME280;22766;48.042;11.192;2023-01-23T02:05:47;95981.41;;;-5.76;100.00
36828;BME280;22766;48.042;11.192;2023-01-23T02:08:39;95979.81;;;-5.81;100.00
36828;BME280;22766;48.042;11.192;2023-01-23T02:11:08;95974.03;;;-5.83;100.00
36828;BME280;22766;48.042;11.192;2023-01-23T02:13:37;95968.19;;;-5.84;100.00
36828;BME280;22766;48.042;11.192;2023-01-23T02:16:11;95980.63;;;-5.79;100.00
36828;BME280;22766;48.042;11.192;2023-01-23T02:18:52;95976.41;;;-5.79;100.00
36828;BME280;22766;48.042;11.192;2023-01-23T02:21:22;95978.06;;;-5.76;100.00
36828;BME280;22766;48.042;11.192;2023-01-23T02:26:33;95976.31;;;-5.73;100.00
36828;BME280;22766;48.042;11.192;2023-01-23T02:29:04;95975.50;;;-5.75;100.00
36828;BME280;22766;48.042;11.192;2023-01-23T02:31:39;95973.03;;;-5.76;100.00
36828;BME280;22766;48.042;11.192;2023-01-23T02:34:10;95977.25;;;-5.78;100.00
36828;BME280;22766;48.042;11.192;2023-01-23T02:36:40;95966.38;;;-5.79;100.00
36828;BME280;22766;48.042;11.192;2023-01-23T02:39:14;95972.91;;;-5.70;100.00
36828;BME280;22766;48.042;11.192;2023-01-23T02:41:46;95966.16;;;-5.68;100.00
36828;BME280;22766;48.042;11.192;2023-01-23T02:44:19;95963.63;;;-5.68;100.00
36828;BME280;22766;48.042;11.192;2023-01-23T02:47:04;95957.66;;;-5.64;100.00
36828;BME280;22766;48.042;11.192;2023-01-23T02:49:33;95960.09;;;-5.59;100.00
36828;BME280;22766;48.042;11.192;2023-01-23T02:52:02;95953.28;;;-5.56;100.00
36828;BME280;22766;48.042;11.192;2023-01-23T02:54:29;95956.50;;;-5.49;100.00
36828;BME280;22766;48.042;11.192;2023-01-23T02:56:57;95951.44;;;-5.48;100.00
36828;BME280;22766;48.042;11.192;2023-01-23T02:59:24;95964.88;;;-5.49;100.00
36828;BME280;22766;48.042;11.192;2023-01-23T03:02:09;95961.59;;;-5.51;100.00
36828;BME280;22766;48.042;11.192;2023-01-23T03:04:36;95971.56;;;-5.48;100.00
36828;BME280;22766;48.042;11.192;2023-01-23T03:07:03;95984.09;;;-5.46;100.00
36828;BME280;22766;48.042;11.192;2023-01-23T03:09:29;95985.66;;;-5.41;100.00
36828;BME280;22766;48.042;11.192;2023-01-23T03:11:56;95990.69;;;-5.41;100.00
36828;BME280;22766;48.042;11.192;2023-01-23T03:14:28;95985.69;;;-5.42;100.00
36828;BME280;22766;48.042;11.192;2023-01-23T03:16:57;95994.72;;;-5.32;100.00
36828;BME280;22766;48.042;11.192;2023-01-23T03:19:28;95987.88;;;-5.27;100.00
36828;BME280;22766;48.042;11.192;2023-01-23T03:21:57;95996.97;;;-5.22;100.00
36828;BME280;22766;48.042;11.192;2023-01-23T03:24:27;95996.13;;;-5.22;100.00
36828;BME280;22766;48.042;11.192;2023-01-23T03:26:53;95996.03;;;-5.18;100.00
36828;BME280;22766;48.042;11.192;2023-01-23T03:29:24;95991.66;;;-5.10;100.00
36828;BME280;22766;48.042;11.192;2023-01-23T03:32:12;95984.88;;;-5.06;100.00
36828;BME280;22766;48.042;11.192;2023-01-23T03:34:41;95994.06;;;-5.04;100.00
36828;BME280;22766;48.042;11.192;2023-01-23T03:37:09;95989.81;;;-5.02;100.00
36828;BME280;22766;48.042;11.192;2023-01-23T03:39:38;95988.97;;;-5.02;100.00
36828;BME280;22766;48.042;11.192;2023-01-23T03:42:24;95992.19;;;-4.97;100.00
36828;BME280;22766;48.042;11.192;2023-01-23T03:44:52;95994.66;;;-4.94;100.00
36828;BME280;22766;48.042;11.192;2023-01-23T03:47:22;95992.09;;;-4.93;100.00
36828;BME280;22766;48.042;11.192;2023-01-23T03:49:52;95986.88;;;-4.85;100.00
36828;BME280;22766;48.042;11.192;2023-01-23T03:52:19;95981.81;;;-4.84;100.00
36828;BME280;22766;48.042;11.192;2023-01-23T03:54:46;95979.19;;;-4.79;100.00
36828;BME280;22766;48.042;11.192;2023-01-23T03:57:12;95971.69;;;-4.81;100.00
36828;BME280;22766;48.042;11.192;2023-01-23T03:59:58;95979.94;;;-4.76;100.00
36828;BME280;22766;48.042;11.192;2023-01-23T04:02:27;95975.75;;;-4.77;100.00
36828;BME280;22766;48.042;11.192;2023-01-23T04:04:54;95984.84;;;-4.71;100.00
36828;BME280;22766;48.042;11.192;2023-01-23T04:07:21;95987.41;;;-4.72;100.00
36828;BME280;22766;48.042;11.192;2023-01-23T04:09:48;95984.06;;;-4.73;100.00
36828;BME280;22766;48.042;11.192;2023-01-23T04:12:15;95990.84;;;-4.75;100.00
36828;BME280;22766;48.042;11.192;2023-01-23T04:14:46;95994.16;;;-4.75;100.00
36828;BME280;22766;48.042;11.192;2023-01-23T04:17:13;95994.16;;;-4.73;100.00
36828;BME280;22766;48.042;11.192;2023-01-23T04:19:39;95988.25;;;-4.72;100.00
36828;BME280;22766;48.042;11.192;2023-01-23T04:22:06;95993.09;;;-4.64;100.00
36828;BME280;22766;48.042;11.192;2023-01-23T04:24:39;95996.31;;;-4.59;100.00
36828;BME280;22766;48.042;11.192;2023-01-23T04:27:05;95994.63;;;-4.59;100.00
36828;BME280;22766;48.042;11.192;2023-01-23T04:29:33;95992.03;;;-4.56;100.00
36828;BME280;22766;48.042;11.192;2023-01-23T04:32:01;95997.09;;;-4.56;100.00
36828;BME280;22766;48.042;11.192;2023-01-23T04:34:29;95997.75;;;-4.49;100.00
36828;BME280;22766;48.042;11.192;2023-01-23T04:36:56;96001.94;;;-4.50;100.00
36828;BME280;22766;48.042;11.192;2023-01-23T04:39:23;96006.28;;;-4.55;100.00
36828;BME280;22766;48.042;11.192;2023-01-23T04:41:50;96010.56;;;-4.58;100.00
36828;BME280;22766;48.042;11.192;2023-01-23T04:44:26;96015.63;;;-4.58;100.00
36828;BME280;22766;48.042;11.192;2023-01-23T04:47:11;96018.19;;;-4.61;100.00
36828;BME280;22766;48.042;11.192;2023-01-23T04:49:38;96009.09;;;-4.65;100.00
36828;BME280;22766;48.042;11.192;2023-01-23T04:52:05;96013.88;;;-4.56;100.00
36828;BME280;22766;48.042;11.192;2023-01-23T04:54:36;96005.59;;;-4.60;100.00
36828;BME280;22766;48.042;11.192;2023-01-23T04:57:03;96008.00;;;-4.57;100.00
36828;BME280;22766;48.042;11.192;2023-01-23T04:59:30;96003.66;;;-4.52;100.00
36828;BME280;22766;48.042;11.192;2023-01-23T05:01:57;95999.41;;;-4.50;100.00
36828;BME280;22766;48.042;11.192;2023-01-23T05:04:24;96000.97;;;-4.44;100.00
36828;BME280;22766;48.042;11.192;2023-01-23T05:06:51;95996.81;;;-4.45;100.00
36828;BME280;22766;48.042;11.192;2023-01-23T05:09:17;96002.59;;;-4.42;100.00
36828;BME280;22766;48.042;11.192;2023-01-23T05:11:49;95998.53;;;-4.47;100.00
36828;BME280;22766;48.042;11.192;2023-01-23T05:14:17;95994.19;;;-4.41;100.00
36828;BME280;22766;48.042;11.192;2023-01-23T05:16:46;95991.47;;;-4.33;100.00
36828;BME280;22766;48.042;11.192;2023-01-23T05:19:16;95992.25;;;-4.33;100.00
36828;BME280;22766;48.042;11.192;2023-01-23T05:21:43;95992.94;;;-4.26;100.00
36828;BME280;22766;48.042;11.192;2023-01-23T05:24:18;95998.88;;;-4.29;100.00
36828;BME280;22766;48.042;11.192;2023-01-23T05:26:44;96008.91;;;-4.26;100.00
36828;BME280;22766;48.042;11.192;2023-01-23T05:29:15;96010.59;;;-4.26;100.00
36828;BME280;22766;48.042;11.192;2023-01-23T05:31:57;96015.59;;;-4.25;100.00
36828;BME280;22766;48.042;11.192;2023-01-23T05:34:36;96019.00;;;-4.27;100.00
36828;BME280;22766;48.042;11.192;2023-01-23T05:37:09;96020.56;;;-4.22;100.00
36828;BME280;22766;48.042;11.192;2023-01-23T05:39:37;96031.41;;;-4.20;100.00
36828;BME280;22766;48.042;11.192;2023-01-23T05:42:04;96040.69;;;-4.20;100.00
36828;BME280;22766;48.042;11.192;2023-01-23T05:44:57;96038.34;;;-4.28;100.00
36828;BME280;22766;48.042;11.192;2023-01-23T05:47:28;96032.97;;;-4.14;100.00
36828;BME280;22766;48.042;11.192;2023-01-23T05:49:56;96044.84;;;-4.19;100.00
36828;BME280;22766;48.042;11.192;2023-01-23T05:52:27;96047.41;;;-4.21;100.00
36828;BME280;22766;48.042;11.192;2023-01-23T05:54:53;96036.53;;;-4.23;100.00
36828;BME280;22766;48.042;11.192;2023-01-23T05:57:20;96030.72;;;-4.25;100.00
36828;BME280;22766;48.042;11.192;2023-01-23T06:00:09;96039.69;;;-4.15;100.00
36828;BME280;22766;48.042;11.192;2023-01-23T06:02:56;96036.63;;;-4.26;100.00
36828;BME280;22766;48.042;11.192;2023-01-23T06:05:36;96036.59;;;-4.24;100.00
36828;BME280;22766;48.042;11.192;2023-01-23T06:08:11;96044.06;;;-4.21;100.00
36828;BME280;22766;48.042;11.192;2023-01-23T06:10:38;96036.53;;;-4.23;100.00
36828;BME280;22766;48.042;11.192;2023-01-23T06:13:05;96035.66;;;-4.20;100.00
36828;BME280;22766;48.042;11.192;2023-01-23T06:15:33;96037.91;;;-4.11;100.00
36828;BME280;22766;48.042;11.192;2023-01-23T06:18:07;96044.69;;;-4.13;100.00
36828;BME280;22766;48.042;11.192;2023-01-23T06:20:34;96048.00;;;-4.11;100.00
36828;BME280;22766;48.042;11.192;2023-01-23T06:23:10;96050.38;;;-4.05;100.00
36828;BME280;22766;48.042;11.192;2023-01-23T06:25:37;96056.31;;;-4.08;100.00
36828;BME280;22766;48.042;11.192;2023-01-23T06:28:07;96048.13;;;-4.16;100.00
36828;BME280;22766;48.042;11.192;2023-01-23T06:30:36;96053.00;;;-4.10;100.00
36828;BME280;22766;48.042;11.192;2023-01-23T06:33:08;96050.63;;;-4.16;100.00
36828;BME280;22766;48.042;11.192;2023-01-23T06:35:39;96059.72;;;-4.09;100.00
36828;BME280;22766;48.042;11.192;2023-01-23T06:38:06;96048.69;;;-4.06;100.00
36828;BME280;22766;48.042;11.192;2023-01-23T06:40:32;96037.75;;;-4.05;100.00
36828;BME280;22766;48.042;11.192;2023-01-23T06:43:12;96047.00;;;-4.06;100.00
36828;BME280;22766;48.042;11.192;2023-01-23T06:45:43;96044.59;;;-4.10;100.00
36828;BME280;22766;48.042;11.192;2023-01-23T06:48:11;96033.72;;;-4.11;100.00
36828;BME280;22766;48.042;11.192;2023-01-23T06:50:40;96041.94;;;-4.04;100.00
36828;BME280;22766;48.042;11.192;2023-01-23T06:53:12;96030.19;;;-4.05;100.00
36828;BME280;22766;48.042;11.192;2023-01-23T06:55:39;96038.59;;;-4.05;100.00
36828;BME280;22766;48.042;11.192;2023-01-23T06:58:06;96035.88;;;-3.97;100.00
36828;BME280;22766;48.042;11.192;2023-01-23T07:00:39;96037.41;;;-3.93;100.00
36828;BME280;22766;48.042;11.192;2023-01-23T07:03:15;96049.28;;;-3.95;100.00
36828;BME280;22766;48.042;11.192;2023-01-23T07:05:42;96040.97;;;-4.00;100.00
36828;BME280;22766;48.042;11.192;2023-01-23T07:08:10;96047.50;;;-3.93;100.00
36828;BME280;22766;48.042;11.192;2023-01-23T07:10:37;96054.81;;;-3.83;100.00
36828;BME280;22766;48.042;11.192;2023-01-23T07:13:08;96055.66;;;-3.84;100.00
36828;BME280;22766;48.042;11.192;2023-01-23T07:15:35;96047.19;;;-3.81;100.00
36828;BME280;22766;48.042;11.192;2023-01-23T07:18:04;96046.41;;;-3.83;100.00
36828;BME280;22766;48.042;11.192;2023-01-23T07:20:31;96052.97;;;-3.78;100.00
36828;BME280;22766;48.042;11.192;2023-01-23T07:22:58;96054.69;;;-3.78;100.00
36828;BME280;22766;48.042;11.192;2023-01-23T07:25:25;96067.38;;;-3.81;100.00
36828;BME280;22766;48.042;11.192;2023-01-23T07:27:51;96051.19;;;-3.72;100.00
36828;BME280;22766;48.042;11.192;2023-01-23T07:30:18;96060.34;;;-3.70;100.00
36828;BME280;22766;48.042;11.192;2023-01-23T07:32:45;96070.47;;;-3.71;100.00
36828;BME280;22766;48.042;11.192;2023-01-23T07:35:12;96077.94;;;-3.67;100.00
36828;BME280;22766;48.042;11.192;2023-01-23T07:37:39;96082.25;;;-3.70;100.00
36828;BME280;22766;48.042;11.192;2023-01-23T07:40:06;96067.63;;;-3.59;100.00
36828;BME280;22766;48.042;11.192;2023-01-23T07:42:32;96063.38;;;-3.59;100.00
36828;BME280;22766;48.042;11.192;2023-01-23T07:44:59;96060.78;;;-3.56;100.00
36828;BME280;22766;48.042;11.192;2023-01-23T07:47:26;96075.25;;;-3.62;100.00
36828;BME280;22766;48.042;11.192;2023-01-23T07:49:52;96084.56;;;-3.63;100.00
36828;BME280;22766;48.042;11.192;2023-01-23T07:52:19;96095.28;;;-3.56;100.00
36828;BME280;22766;48.042;11.192;2023-01-23T07:54:46;96081.88;;;-3.58;100.00
36828;BME280;22766;48.042;11.192;2023-01-23T07:57:12;96085.88;;;-3.51;100.00
36828;BME280;22766;48.042;11.192;2023-01-23T07:59:39;96070.59;;;-3.45;100.00
36828;BME280;22766;48.042;11.192;2023-01-23T08:02:08;96077.16;;;-3.40;100.00
36828;BME280;22766;48.042;11.192;2023-01-23T08:04:36;96092.34;;;-3.41;100.00
36828;BME280;22766;48.042;11.192;2023-01-23T08:07:03;96094.03;;;-3.42;100.00
36828;BME280;22766;48.042;11.192;2023-01-23T08:09:29;96099.06;;;-3.40;100.00
36828;BME280;22766;48.042;11.192;2023-01-23T08:11:56;96104.72;;;-3.32;100.00
36828;BME280;22766;48.042;11.192;2023-01-23T08:14:23;96098.13;;;-3.38;100.00
36828;BME280;22766;48.042;11.192;2023-01-23T08:16:51;96093.31;;;-3.45;100.00
36828;BME280;22766;48.042;11.192;2023-01-23T08:19:18;96093.13;;;-3.39;100.00
36828;BME280;22766;48.042;11.192;2023-01-23T08:21:45;96082.19;;;-3.38;100.00
36828;BME280;22766;48.042;11.192;2023-01-23T08:24:12;96080.44;;;-3.36;100.00
36828;BME280;22766;48.042;11.192;2023-01-23T08:26:40;96084.44;;;-3.29;100.00
36828;BME280;22766;48.042;11.192;2023-01-23T08:29:07;96086.88;;;-3.26;100.00
36828;BME280;22766;48.042;11.192;2023-01-23T08:31:37;96082.75;;;-3.29;100.00
36828;BME280;22766;48.042;11.192;2023-01-23T08:34:04;96090.09;;;-3.21;100.00
36828;BME280;22766;48.042;11.192;2023-01-23T08:36:31;96079.91;;;-3.18;100.00
36828;BME280;22766;48.042;11.192;2023-01-23T08:38:58;96083.16;;;-3.15;100.00
36828;BME280;22766;48.042;11.192;2023-01-23T08:41:25;96088.94;;;-3.10;100.00
36828;BME280;22766;48.042;11.192;2023-01-23T08:43:52;96103.25;;;-3.10;100.00
36828;BME280;22766;48.042;11.192;2023-01-23T08:46:18;96108.38;;;-3.13;100.00
36828;BME280;22766;48.042;11.192;2023-01-23T08:48:45;96094.97;;;-3.15;100.00
36828;BME280;22766;48.042;11.192;2023-01-23T08:51:12;96088.81;;;-3.07;100.00
36828;BME280;22766;48.042;11.192;2023-01-23T08:53:40;96080.91;;;-2.95;100.00
36828;BME280;22766;48.042;11.192;2023-01-23T08:56:13;96103.19;;;-2.79;100.00
36828;BME280;22766;48.042;11.192;2023-01-23T08:58:42;96105.00;;;-2.85;100.00
36828;BME280;22766;48.042;11.192;2023-01-23T09:01:14;96104.22;;;-2.87;100.00
36828;BME280;22766;48.042;11.192;2023-01-23T09:03:41;96102.66;;;-2.91;100.00
36828;BME280;22766;48.042;11.192;2023-01-23T09:06:10;96102.06;;;-2.71;100.00
36828;BME280;22766;48.042;11.192;2023-01-23T09:08:37;96101.34;;;-2.74;100.00
36828;BME280;22766;48.042;11.192;2023-01-23T09:11:05;96099.28;;;-2.63;100.00
36828;BME280;22766;48.042;11.192;2023-01-23T09:13:33;96086.72;;;-2.65;100.00
36828;BME280;22766;48.042;11.192;2023-01-23T09:16:00;96099.28;;;-2.63;100.00
36828;BME280;22766;48.042;11.192;2023-01-23T09:18:27;96108.50;;;-2.61;100.00
36828;BME280;22766;48.042;11.192;2023-01-23T09:20:57;96100.38;;;-2.70;100.00
36828;BME280;22766;48.042;11.192;2023-01-23T09:23:23;96104.50;;;-2.68;100.00
36828;BME280;22766;48.042;11.192;2023-01-23T09:25:50;96092.25;;;-2.54;100.00
36828;BME280;22766;48.042;11.192;2023-01-23T09:28:17;96103.56;;;-2.65;100.00
36828;BME280;22766;48.042;11.192;2023-01-23T09:30:44;96104.13;;;-2.56;100.00
36828;BME280;22766;48.042;11.192;2023-01-23T09:33:10;96114.19;;;-2.54;100.00
36828;BME280;22766;48.042;11.192;2023-01-23T09:35:37;96102.53;;;-2.58;100.00
36828;BME280;22766;48.042;11.192;2023-01-23T09:38:03;96093.94;;;-2.54;100.00
36828;BME280;22766;48.042;11.192;2023-01-23T09:40:42;96088.09;;;-2.55;100.00
36828;BME280;22766;48.042;11.192;2023-01-23T09:48:41;96090.75;;;-2.33;100.00
36828;BME280;22766;48.042;11.192;2023-01-23T09:53:58;96076.63;;;-2.14;100.00
36828;BME280;22766;48.042;11.192;2023-01-23T09:56:30;96068.78;;;-2.07;100.00
36828;BME280;22766;48.042;11.192;2023-01-23T09:59:11;96068.97;;;-2.11;100.00
36828;BME280;22766;48.042;11.192;2023-01-23T10:01:38;96086.25;;;-1.99;100.00
36828;BME280;22766;48.042;11.192;2023-01-23T10:04:05;96081.88;;;-1.94;100.00
36828;BME280;22766;48.042;11.192;2023-01-23T10:24:56;96073.53;;;-2.22;100.00
36828;BME280;22766;48.042;11.192;2023-01-23T10:27:31;96076.59;;;-2.13;100.00
36828;BME280;22766;48.042;11.192;2023-01-23T10:30:02;96074.53;;;-2.02;100.00
36828;BME280;22766;48.042;11.192;2023-01-23T10:32:31;96069.38;;;-1.99;100.00
36828;BME280;22766;48.042;11.192;2023-01-23T10:35:08;96064.56;;;-2.06;100.00
36828;BME280;22766;48.042;11.192;2023-01-23T10:38:09;96062.75;;;-2.03;100.00
36828;BME280;22766;48.042;11.192;2023-01-23T10:40:37;96055.81;;;-1.96;100.00
36828;BME280;22766;48.042;11.192;2023-01-23T10:43:25;96050.81;;;-1.99;100.00
36828;BME280;22766;48.042;11.192;2023-01-23T10:45:52;96055.28;;;-2.06;100.00
36828;BME280;22766;48.042;11.192;2023-01-23T10:50:58;96042.19;;;-1.94;100.00
36828;BME280;22766;48.042;11.192;2023-01-23T10:53:26;96043.03;;;-1.93;100.00
36828;BME280;22766;48.042;11.192;2023-01-23T10:55:56;96039.41;;;-1.86;100.00
36828;BME280;22766;48.042;11.192;2023-01-23T10:58:36;96033.56;;;-1.88;100.00
36828;BME280;22766;48.042;11.192;2023-01-23T11:01:05;96020.13;;;-1.88;100.00
36828;BME280;22766;48.042;11.192;2023-01-23T11:03:34;96025.94;;;-1.86;100.00
36828;BME280;22766;48.042;11.192;2023-01-23T11:06:06;96019.63;;;-1.75;100.00
36828;BME280;22766;48.042;11.192;2023-01-23T11:08:38;96014.13;;;-1.63;100.00
36828;BME280;22766;48.042;11.192;2023-01-23T11:13:46;96010.22;;;-1.71;100.00
36828;BME280;22766;48.042;11.192;2023-01-23T11:16:19;96017.09;;;-1.75;100.00
36828;BME280;22766;48.042;11.192;2023-01-23T11:21:55;96008.19;;;-1.62;100.00
36828;BME280;22766;48.042;11.192;2023-01-23T11:30:02;96004.97;;;-1.67;100.00
36828;BME280;22766;48.042;11.192;2023-01-23T11:32:47;95993.66;;;-1.57;100.00
36828;BME280;22766;48.042;11.192;2023-01-23T11:35:23;95990.06;;;-1.74;100.00
36828;BME280;22766;48.042;11.192;2023-01-23T11:37:52;95993.63;;;-1.80;100.00
36828;BME280;22766;48.042;11.192;2023-01-23T11:40:21;95993.69;;;-1.81;100.00
36828;BME280;22766;48.042;11.192;2023-01-23T11:42:48;95995.63;;;-1.65;100.00
36828;BME280;22766;48.042;11.192;2023-01-23T11:50:45;95988.31;;;-1.72;100.00
36828;BME280;22766;48.042;11.192;2023-01-23T11:53:25;95983.44;;;-1.77;100.00
36828;BME280;22766;48.042;11.192;2023-01-23T12:01:55;95974.06;;;-1.75;100.00
36828;BME280;22766;48.042;11.192;2023-01-23T12:07:17;95950.94;;;-1.43;100.00
36828;BME280;22766;48.042;11.192;2023-01-23T12:09:55;95955.34;;;-1.26;100.00
36828;BME280;22766;48.042;11.192;2023-01-23T12:12:51;95958.28;;;-1.15;100.00
36828;BME280;22766;48.042;11.192;2023-01-23T12:16:00;95959.66;;;-1.07;100.00
36828;BME280;22766;48.042;11.192;2023-01-23T12:24:30;95945.69;;;-0.75;100.00
36828;BME280;22766;48.042;11.192;2023-01-23T12:29:43;95954.91;;;-0.72;100.00
36828;BME280;22766;48.042;11.192;2023-01-23T12:40:27;95942.25;;;-0.94;100.00
36828;BME280;22766;48.042;11.192;2023-01-23T12:43:12;95946.22;;;-1.09;100.00
36828;BME280;22766;48.042;11.192;2023-01-23T12:45:52;95940.69;;;-1.18;100.00
36828;BME280;22766;48.042;11.192;2023-01-23T12:48:26;95936.56;;;-1.21;100.00
36828;BME280;22766;48.042;11.192;2023-01-23T12:51:09;95939.97;;;-1.22;100.00
36828;BME280;22766;48.042;11.192;2023-01-23T12:53:38;95934.09;;;-1.22;100.00
36828;BME280;22766;48.042;11.192;2023-01-23T12:56:14;95929.13;;;-1.25;100.00
36828;BME280;22766;48.042;11.192;2023-01-23T12:58:50;95931.41;;;-1.19;100.00
36828;BME280;22766;48.042;11.192;2023-01-23T13:01:41;95923.66;;;-1.15;100.00
36828;BME280;22766;48.042;11.192;2023-01-23T13:04:40;95924.13;;;-1.05;100.00
36828;BME280;22766;48.042;11.192;2023-01-23T13:07:23;95915.31;;;-0.97;100.00
36828;BME280;22766;48.042;11.192;2023-01-23T13:12:31;95915.81;;;-1.09;100.00
36828;BME280;22766;48.042;11.192;2023-01-23T13:18:00;95928.34;;;-1.27;100.00
36828;BME280;22766;48.042;11.192;2023-01-23T13:20:31;95927.47;;;-1.26;100.00
36828;BME280;22766;48.042;11.192;2023-01-23T13:23:19;95934.84;;;-1.20;100.00
36828;BME280;22766;48.042;11.192;2023-01-23T13:25:46;95938.72;;;-1.12;100.00
36828;BME280;22766;48.042;11.192;2023-01-23T13:28:32;95931.00;;;-1.09;100.00
36828;BME280;22766;48.042;11.192;2023-01-23T13:34:01;95932.25;;;-0.97;100.00
36828;BME280;22766;48.042;11.192;2023-01-23T13:36:48;95929.28;;;-1.08;100.00
36828;BME280;22766;48.042;11.192;2023-01-23T13:41:43;95930.81;;;-1.04;100.00
36828;BME280;22766;48.042;11.192;2023-01-23T13:44:26;95933.19;;;-1.00;100.00
36828;BME280;22766;48.042;11.192;2023-01-23T13:50:15;95925.13;;;-0.89;100.00
36828;BME280;22766;48.042;11.192;2023-01-23T13:52:59;95932.63;;;-0.86;100.00
36828;BME280;22766;48.042;11.192;2023-01-23T13:56:15;95935.97;;;-0.85;100.00
36828;BME280;22766;48.042;11.192;2023-01-23T14:05:26;95941.03;;;-1.06;100.00
36828;BME280;22766;48.042;11.192;2023-01-23T14:08:19;95935.72;;;-1.00;100.00
36828;BME280;22766;48.042;11.192;2023-01-23T14:11:00;95938.41;;;-1.04;100.00
36828;BME280;22766;48.042;11.192;2023-01-23T14:13:53;95935.59;;;-0.97;100.00
36828;BME280;22766;48.042;11.192;2023-01-23T14:16:47;95939.53;;;-0.89;100.00
36828;BME280;22766;48.042;11.192;2023-01-23T14:19:30;95939.53;;;-0.89;100.00
36828;BME280;22766;48.042;11.192;2023-01-23T14:22:11;95938.00;;;-0.93;100.00
36828;BME280;22766;48.042;11.192;2023-01-23T14:24:46;95933.66;;;-0.90;100.00
36828;BME280;22766;48.042;11.192;2023-01-23T14:27:33;95939.56;;;-0.91;100.00
36828;BME280;22766;48.042;11.192;2023-01-23T14:30:18;95925.03;;;-0.86;100.00
36828;BME280;22766;48.042;11.192;2023-01-23T14:32:46;95921.81;;;-0.89;100.00
36828;BME280;22766;48.042;11.192;2023-01-23T14:35:29;95916.22;;;-0.77;100.00
36828;BME280;22766;48.042;11.192;2023-01-23T14:37:58;95912.16;;;-0.81;100.00
36828;BME280;22766;48.042;11.192;2023-01-23T14:40:26;95917.34;;;-0.84;100.00